sensor_id;sensor_type;location;lat;lon;timestamp;P1;durP1;ratioP1;P2;durP2;ratioP2
37303;SDS011;23188;51.188;16.374;2023-04-24T00:01:38;9.20;;;8.20;;
37303;SDS011;23188;51.188;16.374;2023-04-24T00:05:41;11.30;;;9.50;;
37303;SDS011;23188;51.188;16.374;2023-04-24T00:09:44;11.90;;;10.70;;
37303;SDS011;23188;51.188;16.374;2023-04-24T00:13:47;16.90;;;13.10;;
37303;SDS011;23188;51.188;16.374;2023-04-24T00:17:50;13.90;;;10.10;;
37303;SDS011;23188;51.188;16.374;2023-04-24T00:22:00;11.70;;;8.50;;
37303;SDS011;23188;51.188;16.374;2023-04-24T00:26:03;14.10;;;9.80;;
37303;SDS011;23188;51.188;16.374;2023-04-24T00:30:06;14.60;;;9.30;;
37303;SDS011;23188;51.188;16.374;2023-04-24T00:34:09;10.90;;;9.40;;
37303;SDS011;23188;51.188;16.374;2023-04-24T00:42:47;14.20;;;10.10;;
37303;SDS011;23188;51.188;16.374;2023-04-24T00:46:50;11.80;;;9.10;;
37303;SDS011;23188;51.188;16.374;2023-04-24T00:50:57;11.60;;;9.00;;
37303;SDS011;23188;51.188;16.374;2023-04-24T00:55:01;15.70;;;11.10;;
37303;SDS011;23188;51.188;16.374;2023-04-24T00:59:05;18.30;;;12.00;;
37303;SDS011;23188;51.188;16.374;2023-04-24T01:03:09;11.30;;;8.60;;
37303;SDS011;23188;51.188;16.374;2023-04-24T01:07:13;11.20;;;9.10;;
37303;SDS011;23188;51.188;16.374;2023-04-24T01:11:16;11.00;;;9.90;;
37303;SDS011;23188;51.188;16.374;2023-04-24T01:15:20;13.50;;;9.10;;
37303;SDS011;23188;51.188;16.374;2023-04-24T01:19:23;15.70;;;11.50;;
37303;SDS011;23188;51.188;16.374;2023-04-24T01:23:26;17.30;;;11.90;;
37303;SDS011;23188;51.188;16.374;2023-04-24T01:27:29;13.30;;;11.70;;
37303;SDS011;23188;51.188;16.374;2023-04-24T01:31:32;13.50;;;10.90;;
37303;SDS011;23188;51.188;16.374;2023-04-24T01:35:45;12.40;;;10.10;;
37303;SDS011;23188;51.188;16.374;2023-04-24T01:39:52;13.90;;;10.90;;
37303;SDS011;23188;51.188;16.374;2023-04-24T01:43:56;15.50;;;11.00;;
37303;SDS011;23188;51.188;16.374;2023-04-24T01:48:00;14.40;;;9.60;;
37303;SDS011;23188;51.188;16.374;2023-04-24T01:52:03;16.70;;;10.50;;
37303;SDS011;23188;51.188;16.374;2023-04-24T01:56:07;15.90;;;11.30;;
37303;SDS011;23188;51.188;16.374;2023-04-24T02:00:10;10.00;;;8.70;;
37303;SDS011;23188;51.188;16.374;2023-04-24T02:04:14;16.60;;;11.40;;
37303;SDS011;23188;51.188;16.374;2023-04-24T02:08:17;11.40;;;9.90;;
37303;SDS011;23188;51.188;16.374;2023-04-24T02:12:20;14.30;;;10.80;;
37303;SDS011;23188;51.188;16.374;2023-04-24T02:16:23;14.20;;;11.40;;
37303;SDS011;23188;51.188;16.374;2023-04-24T02:20:27;11.70;;;8.90;;
37303;SDS011;23188;51.188;16.374;2023-04-24T02:24:30;15.00;;;11.20;;
37303;SDS011;23188;51.188;16.374;2023-04-24T02:28:33;16.20;;;11.80;;
37303;SDS011;23188;51.188;16.374;2023-04-24T02:32:35;13.50;;;10.20;;
37303;SDS011;23188;51.188;16.374;2023-04-24T02:36:38;25.80;;;9.50;;
37303;SDS011;23188;51.188;16.374;2023-04-24T02:40:41;12.20;;;10.00;;
37303;SDS011;23188;51.188;16.374;2023-04-24T02:44:44;16.00;;;10.80;;
37303;SDS011;23188;51.188;16.374;2023-04-24T02:48:47;10.80;;;9.70;;
37303;SDS011;23188;51.188;16.374;2023-04-24T02:52:56;13.10;;;9.60;;
37303;SDS011;23188;51.188;16.374;2023-04-24T02:56:59;7.60;;;6.40;;
37303;SDS011;23188;51.188;16.374;2023-04-24T03:01:03;8.20;;;6.80;;
37303;SDS011;23188;51.188;16.374;2023-04-24T03:05:07;7.30;;;6.30;;
37303;SDS011;23188;51.188;16.374;2023-04-24T03:09:21;7.70;;;6.20;;
37303;SDS011;23188;51.188;16.374;2023-04-24T03:13:24;9.90;;;7.20;;
37303;SDS011;23188;51.188;16.374;2023-04-24T03:17:26;10.60;;;6.40;;
37303;SDS011;23188;51.188;16.374;2023-04-24T03:21:29;7.70;;;7.00;;
37303;SDS011;23188;51.188;16.374;2023-04-24T03:25:33;8.50;;;6.40;;
37303;SDS011;23188;51.188;16.374;2023-04-24T03:29:35;7.00;;;6.30;;
37303;SDS011;23188;51.188;16.374;2023-04-24T03:33:38;7.50;;;6.50;;
37303;SDS011;23188;51.188;16.374;2023-04-24T03:37:41;8.20;;;6.60;;
37303;SDS011;23188;51.188;16.374;2023-04-24T03:41:44;6.70;;;5.60;;
37303;SDS011;23188;51.188;16.374;2023-04-24T03:45:46;7.70;;;6.00;;
37303;SDS011;23188;51.188;16.374;2023-04-24T03:49:49;7.30;;;6.50;;
37303;SDS011;23188;51.188;16.374;2023-04-24T03:53:52;7.80;;;6.80;;
37303;SDS011;23188;51.188;16.374;2023-04-24T03:57:59;10.10;;;6.50;;
37303;SDS011;23188;51.188;16.374;2023-04-24T04:02:02;8.80;;;6.50;;
37303;SDS011;23188;51.188;16.374;2023-04-24T04:06:05;9.20;;;6.60;;
37303;SDS011;23188;51.188;16.374;2023-04-24T04:10:11;11.80;;;7.90;;
37303;SDS011;23188;51.188;16.374;2023-04-24T04:18:48;8.50;;;6.30;;
37303;SDS011;23188;51.188;16.374;2023-04-24T04:22:54;10.40;;;8.60;;
37303;SDS011;23188;51.188;16.374;2023-04-24T04:27:14;8.40;;;6.40;;
37303;SDS011;23188;51.188;16.374;2023-04-24T04:48:02;11.40;;;8.80;;
37303;SDS011;23188;51.188;16.374;2023-04-24T04:52:06;10.90;;;6.40;;
37303;SDS011;23188;51.188;16.374;2023-04-24T04:56:09;9.40;;;6.80;;
37303;SDS011;23188;51.188;16.374;2023-04-24T05:00:12;9.10;;;8.10;;
37303;SDS011;23188;51.188;16.374;2023-04-24T05:04:19;9.50;;;8.40;;
37303;SDS011;23188;51.188;16.374;2023-04-24T05:08:22;10.50;;;6.90;;
37303;SDS011;23188;51.188;16.374;2023-04-24T05:12:29;8.90;;;7.60;;
37303;SDS011;23188;51.188;16.374;2023-04-24T05:16:32;11.60;;;8.10;;
37303;SDS011;23188;51.188;16.374;2023-04-24T05:20:35;10.40;;;8.30;;
37303;SDS011;23188;51.188;16.374;2023-04-24T05:24:40;14.80;;;13.40;;
37303;SDS011;23188;51.188;16.374;2023-04-24T05:32:50;11.50;;;9.60;;
37303;SDS011;23188;51.188;16.374;2023-04-24T05:36:54;11.70;;;9.40;;
37303;SDS011;23188;51.188;16.374;2023-04-24T05:40:58;9.90;;;8.20;;
37303;SDS011;23188;51.188;16.374;2023-04-24T05:49:09;8.20;;;7.30;;
37303;SDS011;23188;51.188;16.374;2023-04-24T05:53:16;10.20;;;8.10;;
37303;SDS011;23188;51.188;16.374;2023-04-24T05:57:23;12.60;;;8.20;;
37303;SDS011;23188;51.188;16.374;2023-04-24T06:01:35;9.90;;;8.20;;
37303;SDS011;23188;51.188;16.374;2023-04-24T06:06:08;11.30;;;8.80;;
37303;SDS011;23188;51.188;16.374;2023-04-24T06:10:16;12.90;;;10.70;;
37303;SDS011;23188;51.188;16.374;2023-04-24T06:18:26;6.80;;;6.10;;
37303;SDS011;23188;51.188;16.374;2023-04-24T06:22:31;7.80;;;7.00;;
37303;SDS011;23188;51.188;16.374;2023-04-24T06:26:47;10.90;;;8.30;;
37303;SDS011;23188;51.188;16.374;2023-04-24T06:31:26;8.80;;;7.90;;
37303;SDS011;23188;51.188;16.374;2023-04-24T06:35:29;8.80;;;7.80;;
37303;SDS011;23188;51.188;16.374;2023-04-24T06:39:31;9.10;;;7.30;;
37303;SDS011;23188;51.188;16.374;2023-04-24T06:43:34;11.80;;;9.30;;
37303;SDS011;23188;51.188;16.374;2023-04-24T06:47:37;10.50;;;9.40;;
37303;SDS011;23188;51.188;16.374;2023-04-24T06:51:40;15.60;;;13.00;;
37303;SDS011;23188;51.188;16.374;2023-04-24T06:55:43;11.40;;;9.90;;
37303;SDS011;23188;51.188;16.374;2023-04-24T06:59:48;10.40;;;9.30;;
37303;SDS011;23188;51.188;16.374;2023-04-24T07:03:51;16.50;;;9.10;;
37303;SDS011;23188;51.188;16.374;2023-04-24T07:07:54;12.90;;;8.80;;
37303;SDS011;23188;51.188;16.374;2023-04-24T07:12:13;9.20;;;8.20;;
37303;SDS011;23188;51.188;16.374;2023-04-24T07:16:16;11.30;;;9.40;;
37303;SDS011;23188;51.188;16.374;2023-04-24T07:20:20;8.40;;;7.40;;
37303;SDS011;23188;51.188;16.374;2023-04-24T07:24:22;10.70;;;9.30;;
37303;SDS011;23188;51.188;16.374;2023-04-24T07:28:28;11.10;;;9.90;;
37303;SDS011;23188;51.188;16.374;2023-04-24T07:32:33;10.30;;;7.20;;
37303;SDS011;23188;51.188;16.374;2023-04-24T07:36:37;9.40;;;8.00;;
37303;SDS011;23188;51.188;16.374;2023-04-24T07:40:43;10.90;;;9.50;;
37303;SDS011;23188;51.188;16.374;2023-04-24T07:44:47;10.90;;;9.90;;
37303;SDS011;23188;51.188;16.374;2023-04-24T07:48:50;10.30;;;8.90;;
37303;SDS011;23188;51.188;16.374;2023-04-24T07:53:13;11.10;;;9.20;;
37303;SDS011;23188;51.188;16.374;2023-04-24T07:57:16;10.90;;;8.60;;
37303;SDS011;23188;51.188;16.374;2023-04-24T08:01:19;16.20;;;10.10;;
37303;SDS011;23188;51.188;16.374;2023-04-24T08:09:31;14.20;;;8.00;;
37303;SDS011;23188;51.188;16.374;2023-04-24T08:13:34;10.90;;;8.00;;
37303;SDS011;23188;51.188;16.374;2023-04-24T08:17:36;8.60;;;7.80;;
37303;SDS011;23188;51.188;16.374;2023-04-24T08:21:40;9.80;;;8.70;;
37303;SDS011;23188;51.188;16.374;2023-04-24T08:25:43;8.60;;;7.80;;
37303;SDS011;23188;51.188;16.374;2023-04-24T08:29:45;7.40;;;6.60;;
37303;SDS011;23188;51.188;16.374;2023-04-24T08:33:48;11.10;;;7.20;;
37303;SDS011;23188;51.188;16.374;2023-04-24T08:37:52;8.30;;;7.50;;
37303;SDS011;23188;51.188;16.374;2023-04-24T08:41:56;8.00;;;7.20;;
37303;SDS011;23188;51.188;16.374;2023-04-24T08:46:14;11.80;;;6.60;;
37303;SDS011;23188;51.188;16.374;2023-04-24T08:50:18;11.80;;;7.00;;
37303;SDS011;23188;51.188;16.374;2023-04-24T08:54:22;9.60;;;7.10;;
37303;SDS011;23188;51.188;16.374;2023-04-24T08:58:25;6.90;;;6.00;;
37303;SDS011;23188;51.188;16.374;2023-04-24T09:02:31;6.90;;;6.10;;
37303;SDS011;23188;51.188;16.374;2023-04-24T09:06:37;7.30;;;6.40;;
37303;SDS011;23188;51.188;16.374;2023-04-24T09:10:41;6.20;;;5.50;;
37303;SDS011;23188;51.188;16.374;2023-04-24T09:14:46;6.80;;;5.60;;
37303;SDS011;23188;51.188;16.374;2023-04-24T09:18:50;10.60;;;5.20;;
37303;SDS011;23188;51.188;16.374;2023-04-24T09:22:54;6.90;;;6.20;;
37303;SDS011;23188;51.188;16.374;2023-04-24T09:26:58;8.70;;;6.40;;
37303;SDS011;23188;51.188;16.374;2023-04-24T09:35:33;6.60;;;5.40;;
37303;SDS011;23188;51.188;16.374;2023-04-24T09:39:36;9.70;;;5.90;;
37303;SDS011;23188;51.188;16.374;2023-04-24T09:43:39;7.90;;;7.10;;
37303;SDS011;23188;51.188;16.374;2023-04-24T09:47:42;9.70;;;7.30;;
37303;SDS011;23188;51.188;16.374;2023-04-24T10:06:33;7.10;;;5.80;;
37303;SDS011;23188;51.188;16.374;2023-04-24T10:10:41;8.60;;;5.90;;
37303;SDS011;23188;51.188;16.374;2023-04-24T10:14:45;8.20;;;5.20;;
37303;SDS011;23188;51.188;16.374;2023-04-24T10:19:03;6.20;;;5.60;;
37303;SDS011;23188;51.188;16.374;2023-04-24T10:23:07;4.90;;;4.40;;
37303;SDS011;23188;51.188;16.374;2023-04-24T10:27:10;5.20;;;4.50;;
37303;SDS011;23188;51.188;16.374;2023-04-24T10:31:15;4.90;;;2.70;;
37303;SDS011;23188;51.188;16.374;2023-04-24T10:35:18;2.80;;;2.50;;
37303;SDS011;23188;51.188;16.374;2023-04-24T10:39:48;5.10;;;3.10;;
37303;SDS011;23188;51.188;16.374;2023-04-24T10:44:06;8.50;;;3.70;;
37303;SDS011;23188;51.188;16.374;2023-04-24T10:48:14;4.10;;;3.10;;
37303;SDS011;23188;51.188;16.374;2023-04-24T10:52:18;3.20;;;1.80;;
37303;SDS011;23188;51.188;16.374;2023-04-24T10:56:21;2.30;;;2.10;;
37303;SDS011;23188;51.188;16.374;2023-04-24T11:00:25;3.40;;;3.10;;
37303;SDS011;23188;51.188;16.374;2023-04-24T11:04:30;3.60;;;2.50;;
37303;SDS011;23188;51.188;16.374;2023-04-24T11:08:39;3.90;;;3.20;;
37303;SDS011;23188;51.188;16.374;2023-04-24T11:12:46;5.30;;;2.90;;
37303;SDS011;23188;51.188;16.374;2023-04-24T11:16:53;4.00;;;2.90;;
37303;SDS011;23188;51.188;16.374;2023-04-24T11:20:59;3.00;;;2.00;;
37303;SDS011;23188;51.188;16.374;2023-04-24T11:25:13;2.70;;;1.50;;
37303;SDS011;23188;51.188;16.374;2023-04-24T11:29:19;2.30;;;2.10;;
37303;SDS011;23188;51.188;16.374;2023-04-24T11:33:25;2.90;;;1.70;;
37303;SDS011;23188;51.188;16.374;2023-04-24T11:37:30;3.10;;;1.30;;
37303;SDS011;23188;51.188;16.374;2023-04-24T11:41:37;16.20;;;1.90;;
37303;SDS011;23188;51.188;16.374;2023-04-24T11:45:47;1.40;;;1.20;;
37303;SDS011;23188;51.188;16.374;2023-04-24T11:49:51;2.70;;;2.10;;
37303;SDS011;23188;51.188;16.374;2023-04-24T11:53:55;3.10;;;2.10;;
37303;SDS011;23188;51.188;16.374;2023-04-24T11:58:06;3.40;;;2.20;;
37303;SDS011;23188;51.188;16.374;2023-04-24T12:02:10;4.70;;;2.10;;
37303;SDS011;23188;51.188;16.374;2023-04-24T12:06:23;3.00;;;2.10;;
37303;SDS011;23188;51.188;16.374;2023-04-24T12:10:28;3.70;;;2.20;;
37303;SDS011;23188;51.188;16.374;2023-04-24T12:14:32;3.00;;;2.10;;
37303;SDS011;23188;51.188;16.374;2023-04-24T12:18:40;4.20;;;3.00;;
37303;SDS011;23188;51.188;16.374;2023-04-24T12:22:51;13.90;;;8.30;;
37303;SDS011;23188;51.188;16.374;2023-04-24T12:26:59;9.20;;;6.10;;
37303;SDS011;23188;51.188;16.374;2023-04-24T12:31:04;11.00;;;6.20;;
37303;SDS011;23188;51.188;16.374;2023-04-24T12:35:09;6.50;;;5.40;;
37303;SDS011;23188;51.188;16.374;2023-04-24T12:39:18;6.50;;;4.00;;
37303;SDS011;23188;51.188;16.374;2023-04-24T12:43:22;5.80;;;4.80;;
37303;SDS011;23188;51.188;16.374;2023-04-24T12:47:26;7.80;;;6.60;;
37303;SDS011;23188;51.188;16.374;2023-04-24T12:51:30;6.30;;;4.80;;
37303;SDS011;23188;51.188;16.374;2023-04-24T12:55:33;4.40;;;3.00;;
37303;SDS011;23188;51.188;16.374;2023-04-24T12:59:37;5.80;;;3.60;;
37303;SDS011;23188;51.188;16.374;2023-04-24T13:03:41;6.20;;;4.00;;
37303;SDS011;23188;51.188;16.374;2023-04-24T13:07:46;5.70;;;3.90;;
37303;SDS011;23188;51.188;16.374;2023-04-24T13:11:50;4.60;;;3.20;;
37303;SDS011;23188;51.188;16.374;2023-04-24T13:15:53;5.10;;;3.90;;
37303;SDS011;23188;51.188;16.374;2023-04-24T13:19:57;3.80;;;2.20;;
37303;SDS011;23188;51.188;16.374;2023-04-24T13:24:00;2.00;;;1.70;;
37303;SDS011;23188;51.188;16.374;2023-04-24T13:28:04;2.50;;;1.60;;
37303;SDS011;23188;51.188;16.374;2023-04-24T13:32:07;2.80;;;1.80;;
37303;SDS011;23188;51.188;16.374;2023-04-24T13:36:11;3.00;;;1.60;;
37303;SDS011;23188;51.188;16.374;2023-04-24T13:40:15;2.40;;;2.00;;
37303;SDS011;23188;51.188;16.374;2023-04-24T13:44:19;5.70;;;2.30;;
37303;SDS011;23188;51.188;16.374;2023-04-24T13:48:22;2.20;;;2.00;;
37303;SDS011;23188;51.188;16.374;2023-04-24T13:52:26;4.10;;;2.40;;
37303;SDS011;23188;51.188;16.374;2023-04-24T13:56:28;5.70;;;1.80;;
37303;SDS011;23188;51.188;16.374;2023-04-24T14:00:32;2.00;;;1.10;;
37303;SDS011;23188;51.188;16.374;2023-04-24T14:04:35;4.00;;;1.70;;
37303;SDS011;23188;51.188;16.374;2023-04-24T14:08:38;3.10;;;1.80;;
37303;SDS011;23188;51.188;16.374;2023-04-24T14:12:41;2.30;;;1.20;;
37303;SDS011;23188;51.188;16.374;2023-04-24T14:16:44;3.60;;;1.60;;
37303;SDS011;23188;51.188;16.374;2023-04-24T14:20:47;3.60;;;2.00;;
37303;SDS011;23188;51.188;16.374;2023-04-24T14:24:50;2.00;;;1.60;;
37303;SDS011;23188;51.188;16.374;2023-04-24T14:28:53;2.00;;;0.90;;
37303;SDS011;23188;51.188;16.374;2023-04-24T14:33:15;5.20;;;1.90;;
37303;SDS011;23188;51.188;16.374;2023-04-24T14:37:18;1.80;;;1.00;;
37303;SDS011;23188;51.188;16.374;2023-04-24T14:41:22;4.20;;;0.90;;
37303;SDS011;23188;51.188;16.374;2023-04-24T14:45:25;1.30;;;1.20;;
37303;SDS011;23188;51.188;16.374;2023-04-24T14:49:29;2.80;;;1.40;;
37303;SDS011;23188;51.188;16.374;2023-04-24T14:53:33;4.20;;;1.40;;
37303;SDS011;23188;51.188;16.374;2023-04-24T14:57:37;2.60;;;1.60;;
37303;SDS011;23188;51.188;16.374;2023-04-24T15:01:40;2.90;;;1.70;;
37303;SDS011;23188;51.188;16.374;2023-04-24T15:05:46;2.50;;;2.00;;
37303;SDS011;23188;51.188;16.374;2023-04-24T15:09:50;4.20;;;2.00;;
37303;SDS011;23188;51.188;16.374;2023-04-24T15:13:54;3.60;;;2.70;;
37303;SDS011;23188;51.188;16.374;2023-04-24T15:17:58;6.60;;;2.70;;
37303;SDS011;23188;51.188;16.374;2023-04-24T15:22:01;3.70;;;2.60;;
37303;SDS011;23188;51.188;16.374;2023-04-24T15:26:05;4.10;;;3.30;;
37303;SDS011;23188;51.188;16.374;2023-04-24T15:30:09;8.80;;;4.90;;
37303;SDS011;23188;51.188;16.374;2023-04-24T15:34:13;31.90;;;22.60;;
37303;SDS011;23188;51.188;16.374;2023-04-24T15:38:16;13.70;;;9.90;;
37303;SDS011;23188;51.188;16.374;2023-04-24T15:42:19;20.10;;;10.50;;
37303;SDS011;23188;51.188;16.374;2023-04-24T15:46:22;12.30;;;7.00;;
37303;SDS011;23188;51.188;16.374;2023-04-24T15:50:26;6.70;;;3.70;;
37303;SDS011;23188;51.188;16.374;2023-04-24T15:54:29;5.40;;;3.20;;
37303;SDS011;23188;51.188;16.374;2023-04-24T15:58:32;6.10;;;3.80;;
37303;SDS011;23188;51.188;16.374;2023-04-24T16:02:36;5.00;;;4.60;;
37303;SDS011;23188;51.188;16.374;2023-04-24T16:06:41;6.50;;;4.20;;
37303;SDS011;23188;51.188;16.374;2023-04-24T16:10:44;7.60;;;4.80;;
37303;SDS011;23188;51.188;16.374;2023-04-24T16:14:48;8.10;;;3.60;;
37303;SDS011;23188;51.188;16.374;2023-04-24T16:18:52;5.60;;;3.50;;
37303;SDS011;23188;51.188;16.374;2023-04-24T16:22:55;5.60;;;3.20;;
37303;SDS011;23188;51.188;16.374;2023-04-24T16:26:58;6.40;;;3.80;;
37303;SDS011;23188;51.188;16.374;2023-04-24T16:31:02;6.40;;;3.10;;
37303;SDS011;23188;51.188;16.374;2023-04-24T16:35:05;4.30;;;3.00;;
37303;SDS011;23188;51.188;16.374;2023-04-24T16:39:10;6.10;;;4.30;;
37303;SDS011;23188;51.188;16.374;2023-04-24T16:43:13;7.30;;;5.50;;
37303;SDS011;23188;51.188;16.374;2023-04-24T16:47:17;19.00;;;9.60;;
37303;SDS011;23188;51.188;16.374;2023-04-24T16:51:20;24.30;;;17.20;;
37303;SDS011;23188;51.188;16.374;2023-04-24T16:55:24;28.90;;;17.70;;
37303;SDS011;23188;51.188;16.374;2023-04-24T16:59:28;22.10;;;13.90;;
37303;SDS011;23188;51.188;16.374;2023-04-24T17:03:35;13.60;;;8.70;;
37303;SDS011;23188;51.188;16.374;2023-04-24T17:07:41;8.90;;;7.10;;
37303;SDS011;23188;51.188;16.374;2023-04-24T17:11:45;9.80;;;5.80;;
37303;SDS011;23188;51.188;16.374;2023-04-24T17:15:49;5.80;;;4.80;;
37303;SDS011;23188;51.188;16.374;2023-04-24T17:19:55;6.40;;;4.30;;
37303;SDS011;23188;51.188;16.374;2023-04-24T17:24:01;6.90;;;4.60;;
37303;SDS011;23188;51.188;16.374;2023-04-24T17:28:09;5.70;;;4.50;;
37303;SDS011;23188;51.188;16.374;2023-04-24T17:32:23;5.10;;;2.70;;
37303;SDS011;23188;51.188;16.374;2023-04-24T17:36:27;5.70;;;2.90;;
37303;SDS011;23188;51.188;16.374;2023-04-24T17:40:34;5.60;;;4.30;;
37303;SDS011;23188;51.188;16.374;2023-04-24T17:44:39;9.20;;;5.40;;
37303;SDS011;23188;51.188;16.374;2023-04-24T17:48:44;3.90;;;3.30;;
37303;SDS011;23188;51.188;16.374;2023-04-24T17:52:51;4.70;;;3.20;;
37303;SDS011;23188;51.188;16.374;2023-04-24T17:56:54;4.70;;;2.60;;
37303;SDS011;23188;51.188;16.374;2023-04-24T18:00:58;3.00;;;1.80;;
37303;SDS011;23188;51.188;16.374;2023-04-24T18:05:02;5.10;;;2.50;;
37303;SDS011;23188;51.188;16.374;2023-04-24T18:09:06;2.70;;;2.00;;
37303;SDS011;23188;51.188;16.374;2023-04-24T18:13:10;2.80;;;1.70;;
37303;SDS011;23188;51.188;16.374;2023-04-24T18:17:14;3.50;;;2.10;;
37303;SDS011;23188;51.188;16.374;2023-04-24T18:21:18;1.60;;;1.50;;
37303;SDS011;23188;51.188;16.374;2023-04-24T18:25:22;2.90;;;2.40;;
37303;SDS011;23188;51.188;16.374;2023-04-24T18:29:29;5.60;;;3.90;;
37303;SDS011;23188;51.188;16.374;2023-04-24T18:42:52;9.60;;;4.60;;
37303;SDS011;23188;51.188;16.374;2023-04-24T18:46:57;6.90;;;4.70;;
37303;SDS011;23188;51.188;16.374;2023-04-24T18:51:01;6.70;;;4.10;;
37303;SDS011;23188;51.188;16.374;2023-04-24T18:55:05;5.90;;;3.60;;
37303;SDS011;23188;51.188;16.374;2023-04-24T18:59:09;5.80;;;3.20;;
37303;SDS011;23188;51.188;16.374;2023-04-24T19:03:12;10.10;;;4.60;;
37303;SDS011;23188;51.188;16.374;2023-04-24T19:07:16;5.90;;;4.50;;
37303;SDS011;23188;51.188;16.374;2023-04-24T19:11:21;7.80;;;3.90;;
37303;SDS011;23188;51.188;16.374;2023-04-24T19:15:25;11.40;;;7.00;;
37303;SDS011;23188;51.188;16.374;2023-04-24T19:19:35;11.20;;;6.10;;
37303;SDS011;23188;51.188;16.374;2023-04-24T19:23:39;12.30;;;3.90;;
37303;SDS011;23188;51.188;16.374;2023-04-24T19:27:42;6.20;;;4.60;;
37303;SDS011;23188;51.188;16.374;2023-04-24T19:31:46;7.20;;;5.30;;
37303;SDS011;23188;51.188;16.374;2023-04-24T19:35:49;12.90;;;7.60;;
37303;SDS011;23188;51.188;16.374;2023-04-24T19:39:53;5.90;;;4.40;;
37303;SDS011;23188;51.188;16.374;2023-04-24T19:43:57;7.40;;;4.00;;
37303;SDS011;23188;51.188;16.374;2023-04-24T19:48:00;6.10;;;3.80;;
37303;SDS011;23188;51.188;16.374;2023-04-24T19:52:04;3.60;;;3.20;;
37303;SDS011;23188;51.188;16.374;2023-04-24T19:56:09;5.50;;;2.90;;
37303;SDS011;23188;51.188;16.374;2023-04-24T20:00:13;6.70;;;4.10;;
37303;SDS011;23188;51.188;16.374;2023-04-24T20:04:16;6.50;;;3.90;;
37303;SDS011;23188;51.188;16.374;2023-04-24T20:08:23;9.30;;;4.80;;
37303;SDS011;23188;51.188;16.374;2023-04-24T20:12:27;7.00;;;5.20;;
37303;SDS011;23188;51.188;16.374;2023-04-24T20:16:30;7.20;;;4.90;;
37303;SDS011;23188;51.188;16.374;2023-04-24T20:20:34;7.50;;;5.80;;
37303;SDS011;23188;51.188;16.374;2023-04-24T20:28:43;7.00;;;4.40;;
37303;SDS011;23188;51.188;16.374;2023-04-24T20:32:47;6.70;;;6.00;;
37303;SDS011;23188;51.188;16.374;2023-04-24T20:36:50;9.00;;;5.90;;
37303;SDS011;23188;51.188;16.374;2023-04-24T20:40:53;8.40;;;5.30;;
37303;SDS011;23188;51.188;16.374;2023-04-24T20:45:00;4.90;;;4.50;;
37303;SDS011;23188;51.188;16.374;2023-04-24T20:49:03;5.50;;;3.70;;
37303;SDS011;23188;51.188;16.374;2023-04-24T20:53:07;3.10;;;2.70;;
37303;SDS011;23188;51.188;16.374;2023-04-24T20:57:11;5.30;;;3.60;;
37303;SDS011;23188;51.188;16.374;2023-04-24T21:01:14;3.00;;;2.20;;
37303;SDS011;23188;51.188;16.374;2023-04-24T21:05:18;3.30;;;2.30;;
37303;SDS011;23188;51.188;16.374;2023-04-24T21:09:21;6.80;;;2.40;;
37303;SDS011;23188;51.188;16.374;2023-04-24T21:13:24;3.70;;;3.20;;
37303;SDS011;23188;51.188;16.374;2023-04-24T21:17:27;5.30;;;3.20;;
37303;SDS011;23188;51.188;16.374;2023-04-24T21:21:31;3.80;;;2.50;;
37303;SDS011;23188;51.188;16.374;2023-04-24T21:25:35;3.70;;;2.80;;
37303;SDS011;23188;51.188;16.374;2023-04-24T21:29:39;3.80;;;2.40;;
37303;SDS011;23188;51.188;16.374;2023-04-24T21:33:43;6.30;;;1.70;;
37303;SDS011;23188;51.188;16.374;2023-04-24T21:37:46;4.80;;;2.50;;
37303;SDS011;23188;51.188;16.374;2023-04-24T21:41:49;2.90;;;1.40;;
37303;SDS011;23188;51.188;16.374;2023-04-24T21:45:53;7.70;;;1.20;;
37303;SDS011;23188;51.188;16.374;2023-04-24T21:49:56;1.70;;;1.30;;
37303;SDS011;23188;51.188;16.374;2023-04-24T21:54:00;4.00;;;2.10;;
37303;SDS011;23188;51.188;16.374;2023-04-24T21:58:03;3.90;;;2.40;;
37303;SDS011;23188;51.188;16.374;2023-04-24T22:02:06;3.30;;;1.50;;
37303;SDS011;23188;51.188;16.374;2023-04-24T22:06:10;2.00;;;1.30;;
37303;SDS011;23188;51.188;16.374;2023-04-24T22:10:14;5.80;;;1.30;;
37303;SDS011;23188;51.188;16.374;2023-04-24T22:14:17;2.00;;;0.90;;
37303;SDS011;23188;51.188;16.374;2023-04-24T22:18:21;3.30;;;0.60;;
37303;SDS011;23188;51.188;16.374;2023-04-24T22:22:29;0.70;;;0.70;;
37303;SDS011;23188;51.188;16.374;2023-04-24T22:26:33;2.00;;;0.70;;
37303;SDS011;23188;51.188;16.374;2023-04-24T22:30:37;1.10;;;0.70;;
37303;SDS011;23188;51.188;16.374;2023-04-24T22:34:40;0.80;;;0.80;;
37303;SDS011;23188;51.188;16.374;2023-04-24T22:38:43;0.60;;;0.50;;
37303;SDS011;23188;51.188;16.374;2023-04-24T22:42:46;1.40;;;0.80;;
37303;SDS011;23188;51.188;16.374;2023-04-24T22:46:49;1.90;;;0.60;;
37303;SDS011;23188;51.188;16.374;2023-04-24T22:50:53;0.80;;;0.80;;
37303;SDS011;23188;51.188;16.374;2023-04-24T22:54:57;0.80;;;0.70;;
37303;SDS011;23188;51.188;16.374;2023-04-24T22:59:00;4.40;;;0.90;;
37303;SDS011;23188;51.188;16.374;2023-04-24T23:03:04;1.10;;;0.70;;
37303;SDS011;23188;51.188;16.374;2023-04-24T23:07:08;1.10;;;0.70;;
37303;SDS011;23188;51.188;16.374;2023-04-24T23:11:12;0.70;;;0.70;;
37303;SDS011;23188;51.188;16.374;2023-04-24T23:15:15;3.40;;;1.30;;
37303;SDS011;23188;51.188;16.374;2023-04-24T23:19:18;2.90;;;1.70;;
37303;SDS011;23188;51.188;16.374;2023-04-24T23:23:21;1.90;;;1.70;;
37303;SDS011;23188;51.188;16.374;2023-04-24T23:27:25;1.40;;;1.30;;
37303;SDS011;23188;51.188;16.374;2023-04-24T23:31:28;1.20;;;0.70;;
37303;SDS011;23188;51.188;16.374;2023-04-24T23:35:31;3.40;;;1.10;;
37303;SDS011;23188;51.188;16.374;2023-04-24T23:39:34;1.30;;;0.80;;
37303;SDS011;23188;51.188;16.374;2023-04-24T23:43:38;3.20;;;1.50;;
37303;SDS011;23188;51.188;16.374;2023-04-24T23:47:41;1.90;;;1.60;;
37303;SDS011;23188;51.188;16.374;2023-04-24T23:51:44;5.60;;;1.80;;
37303;SDS011;23188;51.188;16.374;2023-04-24T23:55:47;3.30;;;2.30;;
37303;SDS011;23188;51.188;16.374;2023-04-24T23:59:51;5.70;;;2.40;;
